New London, MO

5:31 AM CDT on May 27, 2017 (GMT -0500)
North Eastern Ralls County WB2UFO | | Change Station
Active Advisory: Flood Warning

Elev 700 ft 39.64 °N, 91.44 °W | Updated 11 seconds ago

Partly Cloudy
Partly Cloudy
59.1 °F
Feels Like 59.1 °F
N
0.0
Wind Variable Wind from SW
Gusts 0.0 mph

Today
High -- | Low -- °F
--% Chance of Precip.
Yesterday
High -- | Low -- °F
Precip. -- in
Pressure 29.87 in
Visibility 1.0 miles
Clouds
Dew Point 58 °F
Humidity 97%
Rainfall 0.00 in
Snow Depth Not available.
5:42 AM 8:23 PM
Waxing Crescent, 4% visible
METAR KHAE 271015Z AUTO 03003KT 1SM BR VV007 15/13 A2987 RMK AO2
Pressure 29.87 in
Visibility 1.0 miles
Clouds
Dew Point 58 °F
Humidity 97%
Rainfall 0.00 in
Snow Depth Not available.
5:42 AM 8:23 PM
Waxing Crescent, 4% visible
METAR KHAE 271015Z AUTO 03003KT 1SM BR VV007 15/13 A2987 RMK AO2

Get Your Daily Forecast Email!

Thanks for signing up!

Be on the lookout for a verification email in your inbox.

You'll start receiving severe weather alerts in your inbox..

×

10-Day Weather Forecast

Almanac

Astronomy

May. 27, 2017 Rise Set
Actual Time
Civil Twilight
Nautical Twilight
Astronomical Twilight
Moon
Length of Visible Light
Length of Day
Tomorrow will be .
, % of the Moon is Illuminated

Today's Extremes

State Highs State Lows

Community

WunderPhotos

Category 6

Welcome to Category 6. This is the collective home for Weather Underground's featured writeups by Dr. Jeff Masters (right), Bob Henson (left), Chris Burt, and other regular contributors.

Nearby

Air Quality

  Air Quality AQ Index Pollutant
Not available.

Snow Depth

Station Depth Elevation

Earthquake Activity

City Distance Mag. Time & Date
Minimum magnitude displayed is 2.5.

Coastal Water Temperatures

Place Temperature

Stations

Nearby Weather Stations

Station Location Temp. Windchill Dew Point Humidity Wind Precip. Elev Updated Type
                   

Watches & Warnings

Flood Warning
Issued: 9:41 PM CDT May. 26, 2017 – National Weather Service

The Flood Warning continues for
the Mississippi River at Saverton lock and dam 22
* until further notice.
* At 8:00 PM Friday the stage was 15.7 feet.
* Flood stage is 16.0 feet.
* Minor flooding is forecast.
* The river is forecast to rise above flood stage Sunday morning
and continue to rise to near 17.1 feet Wednesday morning.
Additional rises are very likely thereafter.

                   Fld latest 7 a.M. Forecast
location stg obs stg 05/27 05/28 05/29 05/30 05/31

Mississippi River
Saverton ld22 16.0 15.67 15.7 16.0 16.3 16.7 17.1




Lat... Lon 3967 9135 3974 9121 3970 9114 3952 9097
      3945 9111